createdAt,value
2023-04-25T00:01:41.266Z,5.95
2023-04-25T00:04:09.020Z,5.78
2023-04-25T00:09:11.301Z,6.60
2023-04-25T00:11:38.234Z,5.50
2023-04-25T00:14:06.572Z,5.82
2023-04-25T00:16:35.075Z,6.53
2023-04-25T00:19:04.219Z,7.03
2023-04-25T00:21:32.707Z,6.57
2023-04-25T00:24:00.405Z,7.05
2023-04-25T00:26:27.448Z,7.32
2023-04-25T00:28:55.633Z,8.03
2023-04-25T00:31:22.340Z,7.22
2023-04-25T00:33:50.327Z,7.00
2023-04-25T00:36:18.737Z,7.40
2023-04-25T00:38:45.347Z,7.82
2023-04-25T00:41:11.950Z,7.00
2023-04-25T00:43:39.095Z,8.18
2023-04-25T00:46:05.776Z,7.67
2023-04-25T00:48:32.439Z,8.23
2023-04-25T00:51:00.205Z,7.72
2023-04-25T00:53:28.491Z,8.52
2023-04-25T00:55:55.794Z,7.85
2023-04-25T00:58:23.316Z,7.53
2023-04-25T01:00:53.243Z,7.85
2023-04-25T01:03:23.850Z,7.45
2023-04-25T01:05:52.046Z,7.80
2023-04-25T01:10:45.217Z,8.25
2023-04-25T01:13:11.961Z,7.57
2023-04-25T01:15:38.636Z,7.32
2023-04-25T01:18:06.602Z,6.78
2023-04-25T01:23:01.465Z,7.67
2023-04-25T01:25:28.158Z,5.97
2023-04-25T01:27:54.930Z,7.30
2023-04-25T01:30:21.578Z,6.75
2023-04-25T01:32:49.353Z,7.07
2023-04-25T01:35:16.114Z,7.03
2023-04-25T01:37:44.274Z,8.77
2023-04-25T01:40:12.451Z,6.78
2023-04-25T01:42:41.986Z,7.07
2023-04-25T01:45:09.818Z,6.97
2023-04-25T01:47:36.552Z,7.40
2023-04-25T01:50:05.454Z,7.43
2023-04-25T01:52:32.089Z,6.60
2023-04-25T01:55:00.703Z,6.95
2023-04-25T01:57:27.371Z,6.63
2023-04-25T01:59:59.901Z,6.70
2023-04-25T02:02:27.772Z,5.50
2023-04-25T02:09:50.740Z,6.43
2023-04-25T02:12:17.377Z,7.97
2023-04-25T02:14:44.085Z,8.35
2023-04-25T02:17:13.899Z,7.60
2023-04-25T02:19:40.783Z,5.13
2023-04-25T02:22:07.454Z,7.47
2023-04-25T02:24:35.038Z,5.90
2023-04-25T02:27:03.459Z,6.40
2023-04-25T02:29:32.328Z,6.45
2023-04-25T02:31:59.001Z,6.72
2023-04-25T02:34:25.688Z,5.93
2023-04-25T02:36:52.367Z,6.70
2023-04-25T02:39:19.173Z,7.00
2023-04-25T02:41:46.682Z,6.35
2023-04-25T02:44:13.461Z,5.85
2023-04-25T02:46:40.686Z,4.63
2023-04-25T02:49:09.985Z,3.53
2023-04-25T02:51:38.958Z,4.45
2023-04-25T02:54:06.805Z,4.53
2023-04-25T02:56:33.446Z,4.25
2023-04-25T02:59:00.057Z,4.43
2023-04-25T03:01:26.723Z,4.47
2023-04-25T03:03:55.316Z,4.13
2023-04-25T03:06:22.379Z,4.75
2023-04-25T03:08:48.995Z,4.45
2023-04-25T03:11:15.619Z,3.67
2023-04-25T03:13:42.323Z,4.68
2023-04-25T03:16:09.052Z,4.38
2023-04-25T03:18:35.700Z,4.35
2023-04-25T03:21:02.331Z,5.10
2023-04-25T03:23:28.925Z,3.80
2023-04-25T03:25:55.600Z,4.50
2023-04-25T03:28:25.430Z,4.45
2023-04-25T03:30:52.633Z,4.13
2023-04-25T03:33:19.225Z,4.27
2023-04-25T03:35:46.947Z,3.78
2023-04-25T03:38:14.592Z,3.63
2023-04-25T03:40:41.590Z,4.15
2023-04-25T03:43:09.520Z,4.37
2023-04-25T03:48:03.116Z,4.75
2023-04-25T03:50:29.770Z,4.78
2023-04-25T03:52:56.371Z,4.40
2023-04-25T03:55:23.091Z,4.60
2023-04-25T03:57:49.769Z,3.95
2023-04-25T04:00:16.576Z,4.57
2023-04-25T04:02:45.318Z,4.25
2023-04-25T04:05:12.344Z,5.25
2023-04-25T04:07:41.275Z,5.25
2023-04-25T04:10:13.643Z,5.53
2023-04-25T04:12:40.620Z,5.90
2023-04-25T04:15:08.876Z,5.50
2023-04-25T04:17:36.674Z,5.32
2023-04-25T04:20:04.833Z,5.70
2023-04-25T04:22:31.529Z,5.72
2023-04-25T04:24:58.725Z,5.97
2023-04-25T04:27:25.441Z,5.72
2023-04-25T04:29:53.479Z,6.03
2023-04-25T04:32:20.181Z,6.22
2023-04-25T04:34:48.537Z,7.00
2023-04-25T04:37:16.046Z,6.63
2023-04-25T04:39:42.743Z,6.57
2023-04-25T04:42:10.067Z,6.85
2023-04-25T04:44:37.834Z,5.97
2023-04-25T04:47:07.297Z,7.90
2023-04-25T04:49:34.895Z,8.18
2023-04-25T04:52:01.901Z,8.32
2023-04-25T04:54:28.822Z,9.10
2023-04-25T04:56:57.280Z,7.80
2023-04-25T04:59:23.869Z,8.50
2023-04-25T05:01:51.827Z,8.55
2023-04-25T05:06:48.650Z,8.05
2023-04-25T05:09:16.438Z,7.45
2023-04-25T05:11:43.042Z,6.95
2023-04-25T05:14:09.656Z,6.30
2023-04-25T05:16:37.491Z,6.00
2023-04-25T05:21:32.549Z,6.32
2023-04-25T05:23:59.185Z,7.20
2023-04-25T05:26:25.956Z,7.07
2023-04-25T05:28:52.554Z,7.22
2023-04-25T05:31:19.121Z,6.22
2023-04-25T05:33:45.763Z,6.75
2023-04-25T05:36:12.353Z,7.78
2023-04-25T05:38:39.333Z,6.68
2023-04-25T05:41:08.514Z,6.40
2023-04-25T05:43:35.208Z,6.05
2023-04-25T05:46:02.230Z,5.75
2023-04-25T05:48:33.591Z,5.97
2023-04-25T05:51:00.237Z,6.93
2023-04-25T05:53:27.051Z,6.85
2023-04-25T05:55:53.862Z,7.25
2023-04-25T05:58:20.657Z,6.57
2023-04-25T06:00:47.482Z,5.97
2023-04-25T06:03:19.548Z,6.57
2023-04-25T06:05:47.403Z,7.13
2023-04-25T06:08:14.080Z,7.20
2023-04-25T06:10:40.909Z,6.13
2023-04-25T06:13:07.573Z,5.65
2023-04-25T06:15:35.387Z,6.22
2023-04-25T06:18:02.263Z,5.63
2023-04-25T06:20:29.271Z,5.03
2023-04-25T06:22:55.972Z,5.27
2023-04-25T06:25:22.577Z,5.03
2023-04-25T06:27:49.262Z,5.00
2023-04-25T06:33:41.127Z,4.45
2023-04-25T06:36:08.063Z,5.37
2023-04-25T06:38:35.980Z,5.05
2023-04-25T06:43:29.976Z,4.23
2023-04-25T06:45:57.258Z,3.70
2023-04-25T06:48:23.868Z,4.97
2023-04-25T06:50:50.543Z,4.18
2023-04-25T06:53:17.156Z,3.83
2023-04-25T06:55:43.742Z,4.25
2023-04-25T06:58:10.398Z,3.40
2023-04-25T07:00:37.573Z,4.00
2023-04-25T07:03:04.520Z,3.80
2023-04-25T07:05:31.250Z,5.43
2023-04-25T07:07:58.960Z,2.97
2023-04-25T07:10:26.366Z,4.78
2023-04-25T07:12:53.031Z,4.68
2023-04-25T07:15:19.722Z,4.50
2023-04-25T07:17:46.472Z,5.72
2023-04-25T07:20:13.661Z,3.77
2023-04-25T07:22:40.266Z,4.53
2023-04-25T07:25:07.537Z,5.05
2023-04-25T07:27:34.196Z,3.65
2023-04-25T07:30:00.872Z,4.10
2023-04-25T07:32:28.106Z,4.80
2023-04-25T07:34:54.780Z,3.95
2023-04-25T07:37:21.587Z,4.72
2023-04-25T07:39:48.595Z,4.68
2023-04-25T07:42:15.717Z,4.33
2023-04-25T07:44:43.853Z,5.23
2023-04-25T07:47:10.902Z,3.97
2023-04-25T07:49:38.445Z,4.90
2023-04-25T07:52:07.261Z,4.05
2023-04-25T07:54:33.932Z,4.53
2023-04-25T07:57:00.924Z,5.05
2023-04-25T07:59:29.998Z,5.57
2023-04-25T08:01:58.602Z,5.53
2023-04-25T08:04:26.879Z,5.40
2023-04-25T08:06:55.033Z,4.88
2023-04-25T08:11:50.097Z,4.85
2023-04-25T08:14:16.807Z,4.70
2023-04-25T08:16:43.548Z,3.90
2023-04-25T08:19:11.454Z,4.43
2023-04-25T08:24:05.170Z,4.25
2023-04-25T08:26:31.854Z,2.60
2023-04-25T08:28:58.560Z,3.40
2023-04-25T08:31:26.435Z,3.38
2023-04-25T08:36:37.928Z,3.75
2023-04-25T08:39:05.814Z,5.30
2023-04-25T08:41:32.876Z,3.42
2023-04-25T08:44:02.169Z,3.60
2023-04-25T08:46:29.875Z,3.17
2023-04-25T08:49:02.001Z,2.70
2023-04-25T08:51:32.934Z,2.85
2023-04-25T08:54:30.961Z,2.40
2023-04-25T08:56:59.164Z,2.40
2023-04-25T08:59:26.674Z,2.95
2023-04-25T09:01:53.323Z,2.83
2023-04-25T09:04:21.540Z,3.13
2023-04-25T09:06:49.212Z,2.40
2023-04-25T09:09:16.079Z,3.47
2023-04-25T09:11:43.914Z,2.33
2023-04-25T09:14:15.241Z,1.98
2023-04-25T09:17:14.469Z,2.13
2023-04-25T09:19:42.247Z,3.55
2023-04-25T09:22:10.856Z,3.08
2023-04-25T09:24:40.077Z,3.47
2023-04-25T09:27:19.034Z,1.10
2023-04-25T09:29:45.805Z,3.28
2023-04-25T09:32:24.538Z,2.47
2023-04-25T09:34:56.677Z,2.47
2023-04-25T09:37:26.377Z,3.03
2023-04-25T09:39:56.857Z,3.22
2023-04-25T09:42:30.073Z,2.67
2023-04-25T09:44:57.649Z,2.63
2023-04-25T09:47:26.588Z,1.90
2023-04-25T09:49:54.555Z,0.93
2023-04-25T09:54:52.286Z,1.75
2023-04-25T09:57:24.661Z,1.95
2023-04-25T09:59:53.807Z,1.98
2023-04-25T10:02:22.957Z,2.55
2023-04-25T10:04:56.617Z,2.70
2023-04-25T10:07:27.784Z,2.22
2023-04-25T10:10:05.549Z,2.35
2023-04-25T10:15:00.590Z,1.97
2023-04-25T10:17:29.419Z,1.38
2023-04-25T10:19:56.634Z,1.63
2023-04-25T10:22:36.333Z,2.13
2023-04-25T10:25:07.210Z,2.45
2023-04-25T10:27:35.137Z,1.42
2023-04-25T10:32:33.861Z,2.10
2023-04-25T10:35:14.456Z,2.85
2023-04-25T10:37:58.480Z,2.00
2023-04-25T10:40:25.138Z,2.65
2023-04-25T10:42:58.072Z,1.60
2023-04-25T10:45:24.803Z,4.20
2023-04-25T10:47:51.578Z,3.70
2023-04-25T10:50:18.972Z,2.60
2023-04-25T10:52:45.921Z,7.75
2023-04-25T10:55:12.829Z,7.63
2023-04-25T10:57:45.303Z,5.57
2023-04-25T11:00:19.743Z,8.13
2023-04-25T11:02:48.105Z,4.18
2023-04-25T11:05:24.456Z,2.45
2023-04-25T11:08:03.802Z,3.60
2023-04-25T11:10:37.546Z,3.40
2023-04-25T11:13:04.908Z,3.75
2023-04-25T11:15:31.605Z,2.03
2023-04-25T11:17:58.246Z,1.40
2023-04-25T11:20:28.504Z,2.38
2023-04-25T11:22:58.262Z,1.65
2023-04-25T11:25:26.185Z,1.70
2023-04-25T11:30:21.963Z,1.55
2023-04-25T11:32:48.987Z,1.95
2023-04-25T11:35:16.452Z,2.07
2023-04-25T11:37:45.005Z,1.98
2023-04-25T11:40:12.857Z,2.00
2023-04-25T11:42:48.825Z,2.10
2023-04-25T11:45:16.068Z,1.85
2023-04-25T11:47:43.041Z,3.60
2023-04-25T11:50:10.396Z,5.73
2023-04-25T11:52:48.060Z,3.40
2023-04-25T11:55:17.586Z,2.40
2023-04-25T11:57:45.724Z,2.20
2023-04-25T12:00:22.796Z,3.17
2023-04-25T12:02:54.445Z,3.17
2023-04-25T12:07:54.208Z,3.90
2023-04-25T12:10:22.079Z,3.97
2023-04-25T12:15:25.879Z,2.40
2023-04-25T12:17:55.022Z,3.60
2023-04-25T12:20:26.272Z,1.75
2023-04-25T12:22:53.568Z,2.30
2023-04-25T12:25:36.664Z,1.98
2023-04-25T12:28:15.333Z,1.63
2023-04-25T12:30:59.066Z,2.05
2023-04-25T12:33:28.753Z,1.60
2023-04-25T12:35:56.154Z,2.38
2023-04-25T12:38:23.641Z,1.65
2023-04-25T12:40:51.109Z,1.73
2023-04-25T12:43:18.352Z,1.75
2023-04-25T12:45:46.410Z,1.20
2023-04-25T12:48:14.079Z,1.58
2023-04-25T12:50:40.837Z,1.38
2023-04-25T12:53:07.427Z,2.42
2023-04-25T12:55:34.145Z,1.65
2023-04-25T12:58:02.080Z,2.10
2023-04-25T13:02:55.603Z,2.15
2023-04-25T13:05:23.015Z,2.37
2023-04-25T13:07:52.586Z,1.58
2023-04-25T13:10:19.253Z,2.00
2023-04-25T13:12:47.465Z,2.80
2023-04-25T13:15:14.178Z,3.33
2023-04-25T13:17:41.507Z,2.40
2023-04-25T13:20:11.999Z,1.80
2023-04-25T13:22:39.844Z,1.65
2023-04-25T13:30:05.854Z,1.88
2023-04-25T13:32:32.493Z,1.80
2023-04-25T13:35:00.888Z,2.20
2023-04-25T13:37:28.469Z,2.40
2023-04-25T13:39:56.501Z,4.07
2023-04-25T13:42:28.903Z,2.75
2023-04-25T13:44:56.103Z,4.63
2023-04-25T13:47:25.986Z,2.78
2023-04-25T13:49:52.632Z,2.70
2023-04-25T13:52:19.579Z,2.78
2023-04-25T13:54:46.303Z,2.33
2023-04-25T13:57:13.177Z,1.95
2023-04-25T13:59:40.490Z,1.97
2023-04-25T14:02:07.752Z,2.33
2023-04-25T14:04:34.692Z,2.80
2023-04-25T14:07:01.875Z,3.33
2023-04-25T14:09:28.551Z,1.42
2023-04-25T14:11:56.575Z,2.40
2023-04-25T14:14:24.598Z,2.40
2023-04-25T14:16:51.765Z,2.25
2023-04-25T14:19:22.412Z,2.15
2023-04-25T14:21:49.402Z,2.08
2023-04-25T14:24:16.153Z,1.92
2023-04-25T14:26:43.755Z,2.15
2023-04-25T14:29:13.245Z,2.00
2023-04-25T14:31:42.361Z,3.10
2023-04-25T14:34:12.083Z,1.38
2023-04-25T14:36:41.179Z,1.20
2023-04-25T14:39:07.807Z,1.15
2023-04-25T14:41:34.480Z,1.48
2023-04-25T14:44:01.067Z,1.73
2023-04-25T14:46:27.960Z,1.30
2023-04-25T14:48:56.988Z,1.17
2023-04-25T14:51:23.788Z,1.33
2023-04-25T14:53:51.918Z,1.08
2023-04-25T14:56:18.825Z,1.35
2023-04-25T14:58:46.695Z,1.40
2023-04-25T15:01:14.157Z,1.20
2023-04-25T15:03:43.964Z,1.23
2023-04-25T15:06:11.007Z,1.75
2023-04-25T15:08:37.783Z,1.73
2023-04-25T15:11:04.779Z,1.30
2023-04-25T15:13:32.639Z,1.43
2023-04-25T15:15:59.252Z,1.27
2023-04-25T15:18:26.011Z,1.52
2023-04-25T15:20:55.158Z,4.20
2023-04-25T15:23:22.791Z,1.70
2023-04-25T15:28:17.937Z,1.67
2023-04-25T15:30:44.919Z,1.93
2023-04-25T15:33:11.835Z,1.67
2023-04-25T15:35:38.566Z,1.60
2023-04-25T15:38:05.513Z,2.38
2023-04-25T15:40:32.213Z,1.90
2023-04-25T15:42:59.753Z,1.50
2023-04-25T15:45:27.083Z,1.45
2023-04-25T15:47:57.083Z,1.20
2023-04-25T15:50:24.228Z,1.92
2023-04-25T15:52:51.879Z,1.73
2023-04-25T15:55:19.697Z,1.58
2023-04-25T16:00:15.265Z,2.10
2023-04-25T16:02:44.311Z,3.05
2023-04-25T16:05:13.227Z,2.10
2023-04-25T16:07:41.929Z,1.92
2023-04-25T16:10:10.001Z,1.58
2023-04-25T16:12:37.225Z,1.52
2023-04-25T16:15:05.052Z,1.65
2023-04-25T16:20:04.353Z,1.80
2023-04-25T16:22:32.002Z,1.45
2023-04-25T16:24:58.564Z,1.50
2023-04-25T16:27:25.798Z,1.80
2023-04-25T16:29:52.533Z,1.30
2023-04-25T16:32:19.730Z,1.38
2023-04-25T16:34:46.596Z,0.90
2023-04-25T16:37:13.524Z,1.05
2023-04-25T16:39:41.474Z,1.70
2023-04-25T16:42:08.113Z,1.90
2023-04-25T16:44:35.572Z,2.60
2023-04-25T16:47:02.664Z,1.25
2023-04-25T16:49:29.456Z,1.80
2023-04-25T16:51:56.277Z,1.50
2023-04-25T16:54:24.745Z,1.38
2023-04-25T16:56:52.732Z,1.40
2023-04-25T16:59:19.921Z,1.38
2023-04-25T17:01:46.601Z,1.60
2023-04-25T17:04:13.429Z,1.42
2023-04-25T17:06:40.198Z,1.63
2023-04-25T17:09:06.890Z,1.75
2023-04-25T17:11:33.692Z,1.17
2023-04-25T17:14:01.507Z,1.37
2023-04-25T17:16:36.741Z,1.73
2023-04-25T17:19:06.938Z,3.35
2023-04-25T17:21:34.816Z,2.05
2023-04-25T17:26:28.933Z,1.80
2023-04-25T17:28:58.687Z,4.63
2023-04-25T17:31:26.295Z,2.20
2023-04-25T17:33:53.095Z,2.47
2023-04-25T17:36:19.986Z,2.55
2023-04-25T17:38:47.178Z,1.80
2023-04-25T17:41:15.180Z,1.48
2023-04-25T17:43:42.293Z,1.85
2023-04-25T17:46:09.090Z,1.53
2023-04-25T17:48:36.760Z,1.40
2023-04-25T17:51:03.479Z,1.50
2023-04-25T17:53:30.325Z,2.17
2023-04-25T18:14:46.275Z,1.10
2023-04-25T18:17:14.638Z,1.00
2023-04-25T18:19:43.119Z,1.40
2023-04-25T18:22:10.225Z,1.80
2023-04-25T18:24:37.578Z,1.20
2023-04-25T18:27:06.860Z,1.70
2023-04-25T18:29:34.289Z,2.03
2023-04-25T18:32:01.689Z,1.90
2023-04-25T18:34:28.456Z,1.90
2023-04-25T18:36:57.353Z,1.80
2023-04-25T18:39:26.074Z,1.73
2023-04-25T18:41:59.290Z,1.45
2023-04-25T18:44:34.018Z,1.85
2023-04-25T18:47:01.310Z,1.77
2023-04-25T18:49:28.534Z,1.58
2023-04-25T18:51:57.534Z,1.60
2023-04-25T18:54:24.156Z,2.20
2023-04-25T18:56:51.480Z,2.30
2023-04-25T18:59:18.486Z,2.05
2023-04-25T19:01:45.931Z,2.30
2023-04-25T19:04:12.689Z,2.20
2023-04-25T19:06:39.477Z,1.73
2023-04-25T19:09:10.422Z,1.67
2023-04-25T19:11:39.274Z,2.30
2023-04-25T19:14:05.885Z,1.63
2023-04-25T19:16:38.890Z,1.65
2023-04-25T19:19:07.443Z,2.17
2023-04-25T19:21:35.564Z,1.80
2023-04-25T19:24:06.789Z,1.60
2023-04-25T19:26:33.465Z,1.33
2023-04-25T19:29:14.760Z,1.25
2023-04-25T19:31:44.354Z,1.55
2023-04-25T19:34:11.712Z,1.48
2023-04-25T19:36:40.098Z,1.58
2023-04-25T19:39:07.857Z,1.35
2023-04-25T19:41:36.398Z,1.73
2023-04-25T19:44:08.611Z,1.45
2023-04-25T19:46:36.119Z,1.80
2023-04-25T19:49:07.082Z,1.60
2023-04-25T19:51:34.523Z,1.83
2023-04-25T19:54:01.229Z,1.60
2023-04-25T19:56:28.053Z,1.73
2023-04-25T19:58:54.937Z,1.58
2023-04-25T20:01:22.584Z,1.67
2023-04-25T20:03:52.972Z,1.63
2023-04-25T20:06:19.993Z,1.13
2023-04-25T20:08:47.448Z,1.38
2023-04-25T20:11:15.404Z,1.70
2023-04-25T20:13:46.805Z,1.50
2023-04-25T20:16:19.973Z,1.25
2023-04-25T20:18:50.759Z,2.28
2023-04-25T20:21:17.792Z,1.65
2023-04-25T20:23:44.785Z,2.53
2023-04-25T20:26:12.836Z,1.55
2023-04-25T20:28:39.589Z,1.95
2023-04-25T20:31:06.706Z,1.80
2023-04-25T20:33:36.804Z,1.50
2023-04-25T20:36:03.725Z,1.90
2023-04-25T20:38:31.614Z,1.75
2023-04-25T20:40:58.585Z,1.95
2023-04-25T20:43:27.025Z,2.13
2023-04-25T20:45:54.910Z,1.35
2023-04-25T20:48:22.157Z,1.85
2023-04-25T20:50:48.863Z,2.20
2023-04-25T20:53:15.730Z,1.77
2023-04-25T20:55:42.658Z,1.67
2023-04-25T20:58:09.507Z,1.50
2023-04-25T21:00:36.433Z,1.80
2023-04-25T21:03:05.173Z,1.98
2023-04-25T21:05:33.332Z,2.00
2023-04-25T21:10:26.660Z,2.22
2023-04-25T21:12:53.798Z,2.47
2023-04-25T21:15:21.475Z,2.00
2023-04-25T21:17:52.742Z,2.10
2023-04-25T21:20:20.921Z,2.05
2023-04-25T21:22:51.810Z,2.40
2023-04-25T21:25:25.525Z,2.25
2023-04-25T21:27:53.055Z,2.55
2023-04-25T21:30:23.381Z,1.90
2023-04-25T21:32:51.698Z,2.33
2023-04-25T21:35:23.098Z,2.38
2023-04-25T21:37:51.680Z,2.45
2023-04-25T21:40:18.951Z,2.30
2023-04-25T21:42:51.950Z,2.10
2023-04-25T21:45:22.226Z,2.40
2023-04-25T21:47:49.353Z,2.92
2023-04-25T21:50:16.470Z,2.80
2023-04-25T21:52:43.426Z,2.90
2023-04-25T21:55:11.253Z,2.83
2023-04-25T21:57:43.749Z,2.95
2023-04-25T22:00:28.943Z,2.70
2023-04-25T22:02:55.708Z,2.40
2023-04-25T22:05:24.100Z,2.13
2023-04-25T22:07:51.779Z,2.83
2023-04-25T22:10:19.846Z,2.90
2023-04-25T22:12:47.887Z,2.38
2023-04-25T22:15:14.435Z,2.78
2023-04-25T22:17:41.169Z,2.85
2023-04-25T22:20:13.536Z,2.63
2023-04-25T22:22:41.836Z,2.45
2023-04-25T22:25:17.986Z,2.80
2023-04-25T22:27:44.989Z,2.28
2023-04-25T22:30:14.980Z,2.60
2023-04-25T22:32:42.249Z,2.17
2023-04-25T22:35:09.387Z,2.15
2023-04-25T22:37:37.266Z,2.57
2023-04-25T22:42:38.716Z,2.22
2023-04-25T22:45:07.135Z,2.40
2023-04-25T22:47:35.223Z,2.60
2023-04-25T22:50:05.856Z,2.40
2023-04-25T22:52:35.497Z,3.13
2023-04-25T22:55:03.449Z,2.28
2023-04-25T22:59:57.777Z,2.40
2023-04-25T23:02:28.050Z,2.30
2023-04-25T23:04:57.488Z,2.75
2023-04-25T23:07:25.451Z,2.20
2023-04-25T23:12:19.392Z,2.17
2023-04-25T23:14:53.724Z,2.63
2023-04-25T23:17:20.681Z,3.08
2023-04-25T23:19:48.436Z,3.25
2023-04-25T23:22:15.187Z,2.60
2023-04-25T23:24:42.154Z,2.60
2023-04-25T23:27:08.783Z,2.88
2023-04-25T23:29:35.642Z,3.10
2023-04-25T23:32:02.280Z,2.58
2023-04-25T23:34:32.503Z,2.92
2023-04-25T23:37:01.482Z,3.08
2023-04-25T23:39:30.070Z,3.00
2023-04-25T23:41:57.871Z,2.80
2023-04-25T23:44:24.547Z,2.30
2023-04-25T23:46:53.931Z,3.00
2023-04-25T23:49:21.142Z,3.13
2023-04-25T23:51:47.812Z,2.50
2023-04-25T23:54:16.871Z,3.38
2023-04-25T23:56:43.849Z,3.03
